Time;durP1;ratioP1;P1;durP2;ratioP2;P2;SDS_P1;SDS_P2;PMS_P1;PMS_P2;Temp;Humidity;BMP_temperature;BMP_pressure;BME280_temperature;BME280_humidity;BME280_pressure;Samples;Min_cycle;Max_cycle;Signal;HPM_P1;HPM_P2
2021/11/27 00:00:42;;;;;;;3.83;2.47;;;3.90;99.90;;;;;;5022225;28;20445;-80
2021/11/27 00:03:10;;;;;;;3.17;2.83;;;3.80;99.90;;;;;;5023437;28;20464;-79
2021/11/27 00:05:38;;;;;;;4.00;2.50;;;4.00;99.90;;;;;;5023342;28;20509;-80
2021/11/27 00:08:12;;;;;;;3.07;2.87;;;4.00;99.90;;;;;;5021562;28;22493;-80
2021/11/27 00:10:43;;;;;;;3.17;2.90;;;4.00;99.90;;;;;;5004301;28;20458;-79
2021/11/27 00:13:14;;;;;;;2.97;2.67;;;3.80;99.90;;;;;;5004751;28;20465;-80
2021/11/27 00:15:42;;;;;;;3.00;2.70;;;3.80;99.90;;;;;;5003551;28;20458;-80
2021/11/27 00:18:11;;;;;;;3.30;3.10;;;3.90;99.90;;;;;;5003423;28;20492;-80
2021/11/27 00:20:40;;;;;;;3.20;3.00;;;4.00;99.90;;;;;;4995139;28;20449;-81
2021/11/27 00:23:15;;;;;;;3.10;2.90;;;4.00;99.90;;;;;;5023280;28;20449;-81
2021/11/27 00:25:44;;;;;;;6.27;3.23;;;4.00;99.90;;;;;;5023352;28;20476;-80
2021/11/27 00:28:12;;;;;;;3.43;3.10;;;4.00;99.90;;;;;;5021259;28;20813;-80
2021/11/27 00:30:48;;;;;;;3.97;3.50;;;4.00;99.90;;;;;;5021278;28;20443;-80
2021/11/27 00:33:20;;;;;;;3.17;2.97;;;4.00;99.90;;;;;;5021411;28;20215;-80
2021/11/27 00:35:48;;;;;;;3.53;3.33;;;4.00;99.90;;;;;;5023085;28;20204;-80
2021/11/27 00:38:16;;;;;;;3.57;3.27;;;3.90;99.90;;;;;;5023022;28;20451;-81
2021/11/27 00:40:45;;;;;;;3.87;3.57;;;3.90;99.90;;;;;;5021906;28;20485;-80
2021/11/27 00:43:13;;;;;;;3.57;3.27;;;3.90;99.90;;;;;;5022216;28;20509;-81
2021/11/27 00:45:44;;;;;;;3.33;3.00;;;4.00;99.90;;;;;;5021862;28;20473;-81
2021/11/27 00:48:13;;;;;;;3.60;3.30;;;4.10;99.90;;;;;;5021296;28;20461;-80
2021/11/27 00:50:47;;;;;;;4.23;3.27;;;4.10;99.90;;;;;;5021164;28;20449;-81
2021/11/27 00:53:15;;;;;;;4.88;4.35;;;4.00;99.90;;;;;;5020698;28;20452;-81
2021/11/27 00:55:48;;;;;;;4.47;3.90;;;4.00;99.90;;;;;;5021345;28;20211;-81
2021/11/27 00:58:16;;;;;;;4.07;3.70;;;4.10;99.90;;;;;;5022011;28;20935;-81
2021/11/27 01:00:47;;;;;;;4.20;3.80;;;4.00;99.90;;;;;;5021639;28;20461;-81
2021/11/27 01:03:18;;;;;;;7.97;4.00;;;3.90;99.90;;;;;;5007472;28;20464;-80
2021/11/27 01:05:48;;;;;;;4.93;3.77;;;4.00;99.90;;;;;;5023953;28;20440;-80
2021/11/27 01:08:15;;;;;;;8.37;4.07;;;3.90;99.90;;;;;;5023943;28;20440;-81
2021/11/27 01:10:48;;;;;;;3.93;3.57;;;3.90;99.90;;;;;;5023643;28;20461;-81
2021/11/27 01:13:19;;;;;;;7.53;3.50;;;3.90;99.90;;;;;;5023465;28;20477;-81
2021/11/27 01:15:48;;;;;;;7.83;4.00;;;3.90;99.90;;;;;;5022930;28;20441;-80
2021/11/27 01:18:16;;;;;;;3.97;3.53;;;3.80;99.90;;;;;;5023406;28;20434;-81
2021/11/27 01:20:49;;;;;;;3.77;2.80;;;3.70;99.90;;;;;;5016271;28;20449;-81
2021/11/27 01:23:17;;;;;;;3.47;3.17;;;3.70;99.90;;;;;;5003966;28;20442;-81
2021/11/27 01:25:45;;;;;;;4.20;3.23;;;3.70;99.90;;;;;;5004613;28;20446;-82
2021/11/27 01:28:15;;;;;;;5.40;3.40;;;3.70;99.90;;;;;;5003937;28;20446;-83
2021/11/27 01:30:43;;;;;;;5.13;4.00;;;3.70;99.90;;;;;;5004979;28;20530;-82
2021/11/27 01:33:13;;;;;;;6.23;3.93;;;3.60;99.90;;;;;;5004948;28;20488;-81
2021/11/27 01:35:42;;;;;;;4.20;3.23;;;3.40;99.90;;;;;;5004949;28;20439;-81
2021/11/27 01:38:10;;;;;;;6.40;3.80;;;3.40;99.90;;;;;;4999964;28;20462;-80
2021/11/27 01:40:42;;;;;;;6.73;3.13;;;3.40;99.90;;;;;;4967070;28;20481;-81
2021/11/27 01:43:16;;;;;;;5.43;3.50;;;3.40;99.90;;;;;;4983675;28;20454;-79
2021/11/27 01:45:45;;;;;;;4.67;3.30;;;3.40;99.90;;;;;;4983256;28;20539;-79
2021/11/27 01:48:14;;;;;;;5.53;3.17;;;3.30;99.90;;;;;;4966824;28;20439;-81
2021/11/27 01:50:45;;;;;;;3.60;2.87;;;3.50;99.90;;;;;;4967205;28;20444;-80
2021/11/27 01:53:16;;;;;;;4.97;3.53;;;3.40;99.90;;;;;;4983267;28;20483;-79
2021/11/27 01:55:43;;;;;;;4.60;3.27;;;3.30;99.90;;;;;;4983726;28;20446;-79
2021/11/27 01:58:18;;;;;;;4.47;3.57;;;3.20;99.90;;;;;;4983254;28;20458;-79
2021/11/27 02:00:49;;;;;;;5.10;4.60;;;3.20;99.90;;;;;;4983938;28;20457;-78
2021/11/27 02:03:19;;;;;;;4.90;4.10;;;3.30;99.90;;;;;;4983428;28;20466;-79
2021/11/27 02:05:47;;;;;;;7.30;3.77;;;3.40;99.90;;;;;;4984461;28;20447;-81
2021/11/27 02:08:16;;;;;;;4.37;3.97;;;3.30;99.90;;;;;;4984345;28;20443;-79
2021/11/27 02:10:43;;;;;;;4.43;4.00;;;3.30;99.90;;;;;;4967079;28;20479;-79
2021/11/27 02:13:12;;;;;;;5.37;4.20;;;3.30;99.90;;;;;;4984868;28;20483;-80
2021/11/27 02:15:43;;;;;;;6.30;4.10;;;3.20;99.90;;;;;;4987139;28;20451;-81
2021/11/27 02:18:13;;;;;;;7.63;4.27;;;3.20;99.90;;;;;;4987041;28;20437;-80
2021/11/27 02:20:58;;;;;;;8.47;4.37;;;3.10;99.90;;;;;;4990239;28;20494;-81
2021/11/27 02:23:25;;;;;;;6.87;4.80;;;3.10;99.90;;;;;;4985537;28;20468;-79
2021/11/27 02:25:54;;;;;;;5.87;4.10;;;3.10;99.90;;;;;;4983563;28;20515;-80
2021/11/27 02:28:22;;;;;;;11.20;4.97;;;3.10;99.90;;;;;;4983761;28;20498;-79
2021/11/27 02:30:55;;;;;;;8.23;4.73;;;3.10;99.90;;;;;;4983399;28;20463;-80
2021/11/27 02:33:24;;;;;;;7.13;5.03;;;3.00;99.90;;;;;;4982956;28;20494;-79
2021/11/27 02:35:51;;;;;;;8.17;6.90;;;2.90;99.90;;;;;;4983402;28;20843;-81
2021/11/27 02:38:20;;;;;;;12.50;5.23;;;2.90;99.90;;;;;;4965616;28;20807;-79
2021/11/27 02:40:52;;;;;;;9.73;4.77;;;2.90;99.90;;;;;;4983483;28;20454;-80
2021/11/27 02:43:19;;;;;;;11.10;4.73;;;2.80;99.90;;;;;;4984187;28;20439;-79
2021/11/27 02:45:47;;;;;;;10.57;4.87;;;2.80;99.90;;;;;;4983361;28;20983;-81
2021/11/27 02:48:17;;;;;;;12.03;4.90;;;2.90;99.90;;;;;;4982986;28;20447;-82
2021/11/27 02:50:45;;;;;;;13.80;5.37;;;3.00;99.90;;;;;;4983276;28;21176;-79
2021/11/27 02:53:14;;;;;;;10.20;5.87;;;2.90;99.90;;;;;;4983173;28;20502;-81
2021/11/27 02:55:42;;;;;;;13.20;5.87;;;2.90;99.90;;;;;;4983631;28;20459;-81
2021/11/27 02:58:09;;;;;;;13.27;5.77;;;3.00;99.90;;;;;;4983594;28;20448;-80
2021/11/27 03:00:37;;;;;;;8.17;5.30;;;3.00;99.90;;;;;;4983338;28;20455;-80
2021/11/27 03:03:05;;;;;;;10.17;4.80;;;3.10;99.90;;;;;;4981646;28;20537;-79
2021/11/27 03:05:32;;;;;;;7.53;4.87;;;2.90;99.90;;;;;;4982379;28;20458;-80
2021/11/27 03:08:00;;;;;;;18.97;6.57;;;2.90;99.90;;;;;;4981945;28;20450;-81
2021/11/27 03:10:30;;;;;;;12.27;5.90;;;2.90;99.90;;;;;;4982512;28;20444;-80
2021/11/27 03:12:59;;;;;;;11.27;6.43;;;2.90;99.90;;;;;;4983337;28;20488;-79
2021/11/27 03:15:27;;;;;;;15.10;6.57;;;2.90;99.90;;;;;;4981929;28;20434;-80
2021/11/27 03:17:57;;;;;;;16.60;7.40;;;2.80;99.90;;;;;;4982268;28;20440;-80
2021/11/27 03:20:25;;;;;;;13.10;5.97;;;2.80;99.90;;;;;;4964581;28;20451;-80
2021/11/27 03:22:52;;;;;;;14.80;6.70;;;2.70;99.90;;;;;;4997153;28;20469;-80
2021/11/27 03:25:19;;;;;;;13.90;6.93;;;2.80;99.90;;;;;;5000197;28;20446;-80
2021/11/27 03:27:46;;;;;;;18.33;7.13;;;2.70;99.90;;;;;;5001150;28;20450;-80
2021/11/27 03:30:19;;;;;;;18.63;6.77;;;2.60;99.90;;;;;;5000483;28;20454;-80
2021/11/27 03:32:46;;;;;;;17.17;7.90;;;2.50;99.90;;;;;;5000431;28;20997;-79
2021/11/27 03:35:13;;;;;;;16.27;7.23;;;2.50;99.90;;;;;;4982947;28;20450;-81
2021/11/27 03:37:41;;;;;;;14.20;6.30;;;2.40;99.90;;;;;;4999719;28;20437;-79
2021/11/27 03:40:10;;;;;;;16.73;6.70;;;2.20;99.90;;;;;;4999930;28;20435;-79
2021/11/27 03:42:37;;;;;;;15.67;6.63;;;2.20;99.90;;;;;;4999782;28;20447;-80
2021/11/27 03:45:11;;;;;;;16.43;6.80;;;2.10;99.90;;;;;;4998757;28;20477;-81
2021/11/27 03:47:57;;;;;;;16.37;7.50;;;2.20;99.90;;;;;;4999996;28;20454;-81
2021/11/27 03:50:28;;;;;;;13.47;6.67;;;2.20;99.90;;;;;;4999905;28;20454;-79
2021/11/27 03:52:55;;;;;;;17.13;6.77;;;2.20;99.90;;;;;;4999525;28;20508;-79
2021/11/27 03:55:21;;;;;;;22.27;7.07;;;2.30;99.90;;;;;;4999164;28;20453;-79
2021/11/27 03:57:48;;;;;;;18.77;7.37;;;2.30;99.90;;;;;;4999574;28;20810;-79
2021/11/27 04:00:17;;;;;;;17.07;6.53;;;2.40;99.90;;;;;;4999132;28;20431;-79
2021/11/27 04:02:50;;;;;;;11.13;6.27;;;2.30;99.90;;;;;;4998658;28;20470;-80
2021/11/27 04:05:19;;;;;;;15.93;6.07;;;2.20;99.90;;;;;;4998863;28;20918;-80
2021/11/27 04:07:46;;;;;;;23.10;6.30;;;2.30;99.90;;;;;;4999750;28;20438;-79
2021/11/27 04:10:16;;;;;;;13.40;6.10;;;2.30;99.90;;;;;;4998425;28;20457;-80
2021/11/27 04:12:43;;;;;;;18.17;6.53;;;2.30;99.90;;;;;;4998655;28;20536;-80
2021/11/27 04:15:11;;;;;;;21.70;6.50;;;2.30;99.90;;;;;;4998156;28;20457;-79
2021/11/27 04:17:37;;;;;;;18.83;7.07;;;2.30;99.90;;;;;;4981523;28;20475;-79
2021/11/27 04:20:07;;;;;;;12.13;6.23;;;2.20;99.90;;;;;;4977353;28;20443;-78
2021/11/27 04:22:34;;;;;;;22.50;6.50;;;2.20;99.90;;;;;;4988327;28;20488;-79
2021/11/27 04:25:02;;;;;;;16.57;6.93;;;2.10;99.90;;;;;;4981736;28;20446;-80
2021/11/27 04:27:30;;;;;;;15.20;6.43;;;2.00;99.90;;;;;;5000208;28;20442;-79
2021/11/27 04:29:57;;;;;;;23.20;7.30;;;2.00;99.90;;;;;;4998496;28;20434;-80
2021/11/27 04:32:24;;;;;;;22.90;6.83;;;2.00;99.90;;;;;;4999817;28;20497;-79
2021/11/27 04:34:51;;;;;;;21.97;7.20;;;2.00;99.90;;;;;;4998378;28;20430;-79
2021/11/27 04:37:21;;;;;;;17.70;6.80;;;2.00;99.90;;;;;;4999140;28;20437;-79
2021/11/27 04:39:50;;;;;;;19.03;7.23;;;1.90;99.90;;;;;;4998823;28;20474;-79
2021/11/27 04:42:26;;;;;;;21.07;7.13;;;2.00;99.90;;;;;;4997925;28;20447;-80
2021/11/27 04:44:53;;;;;;;16.60;7.20;;;1.90;99.90;;;;;;4998943;28;20434;-78
2021/11/27 04:47:23;;;;;;;22.07;7.47;;;2.00;99.90;;;;;;4999453;28;20918;-79
2021/11/27 04:49:50;;;;;;;20.60;7.47;;;2.00;99.90;;;;;;4999052;28;20522;-80
2021/11/27 04:52:21;;;;;;;25.90;8.43;;;2.00;99.90;;;;;;4999526;28;20462;-79
2021/11/27 04:54:50;;;;;;;21.27;7.73;;;2.10;99.90;;;;;;5000890;28;20442;-79
2021/11/27 04:57:23;;;;;;;21.27;7.73;;;2.00;99.90;;;;;;4999578;28;20442;-80
2021/11/27 04:59:50;;;;;;;27.67;7.00;;;1.90;99.90;;;;;;4997711;28;20459;-79
2021/11/27 05:02:17;;;;;;;31.83;10.77;;;1.90;99.90;;;;;;4997993;28;20445;-78
2021/11/27 05:04:44;;;;;;;24.03;8.67;;;2.00;99.90;;;;;;4998098;28;20197;-79
2021/11/27 05:07:11;;;;;;;23.93;8.43;;;2.00;99.90;;;;;;5000032;28;20446;-79
2021/11/27 05:09:40;;;;;;;17.87;7.20;;;1.80;99.90;;;;;;4999348;28;20915;-79
2021/11/27 05:12:08;;;;;;;18.33;7.43;;;1.80;99.90;;;;;;4999450;28;20442;-79
2021/11/27 05:14:35;;;;;;;22.10;7.47;;;1.90;99.90;;;;;;4997896;28;20486;-78
2021/11/27 05:17:01;;;;;;;25.80;7.67;;;1.90;99.90;;;;;;4999276;28;20453;-79
2021/11/27 05:19:29;;;;;;;21.03;6.77;;;1.90;99.90;;;;;;4997272;28;20442;-80
2021/11/27 05:21:56;;;;;;;16.13;6.67;;;2.00;99.90;;;;;;4998911;28;20454;-80
2021/11/27 05:24:26;;;;;;;22.00;7.60;;;1.90;99.90;;;;;;4981744;28;20960;-81
2021/11/27 05:26:57;;;;;;;24.40;10.63;;;1.90;99.90;;;;;;4997292;28;20426;-79
2021/11/27 05:29:23;;;;;;;19.00;7.63;;;2.00;99.90;;;;;;4998826;28;20216;-79
2021/11/27 05:31:59;;;;;;;22.67;7.90;;;2.00;99.90;;;;;;4999065;28;20489;-79
2021/11/27 05:34:33;;;;;;;21.07;7.37;;;2.10;99.90;;;;;;4996835;28;20481;-79
2021/11/27 05:37:06;;;;;;;20.03;7.60;;;2.10;99.90;;;;;;4999655;28;20445;-80
2021/11/27 05:39:34;;;;;;;22.27;7.00;;;2.10;99.90;;;;;;4997043;28;20798;-78
2021/11/27 05:42:02;;;;;;;27.23;7.53;;;2.10;99.90;;;;;;4997846;28;20485;-80
2021/11/27 05:44:29;;;;;;;18.33;6.87;;;2.10;99.90;;;;;;4998903;28;20439;-79
2021/11/27 05:46:56;;;;;;;13.30;7.37;;;2.10;99.90;;;;;;4998307;28;20994;-78
2021/11/27 05:49:23;;;;;;;23.27;8.25;;;2.10;99.90;;;;;;4983199;28;20961;-79
2021/11/27 05:51:50;;;;;;;17.17;6.97;;;2.10;99.90;;;;;;5002033;28;20214;-80
2021/11/27 05:54:17;;;;;;;14.97;6.50;;;2.00;99.90;;;;;;5001994;28;20504;-81
2021/11/27 05:56:44;;;;;;;23.17;6.70;;;2.00;99.90;;;;;;4986062;28;20457;-80
2021/11/27 05:59:12;;;;;;;18.63;7.33;;;2.00;99.90;;;;;;5003006;28;20523;-80
2021/11/27 06:01:39;;;;;;;19.80;6.90;;;1.90;99.90;;;;;;4992649;28;20474;-80
2021/11/27 06:04:06;;;;;;;18.60;7.17;;;1.90;99.90;;;;;;4990041;28;20446;-80
2021/11/27 06:06:34;;;;;;;17.90;7.17;;;2.00;99.90;;;;;;5000780;28;20813;-79
2021/11/27 06:09:02;;;;;;;13.03;6.57;;;2.00;99.90;;;;;;5001751;28;20461;-78
2021/11/27 06:11:29;;;;;;;18.73;6.40;;;2.00;99.90;;;;;;5001131;28;20446;-79
2021/11/27 06:13:56;;;;;;;16.33;6.63;;;2.00;99.90;;;;;;5001390;28;20474;-79
2021/11/27 06:16:26;;;;;;;18.77;6.33;;;2.00;99.90;;;;;;5000921;28;20453;-79
2021/11/27 06:18:54;;;;;;;18.60;5.70;;;2.00;99.90;;;;;;5001354;28;20458;-81
2021/11/27 06:21:21;;;;;;;21.37;6.40;;;2.10;99.90;;;;;;5002277;28;20466;-81
2021/11/27 06:23:49;;;;;;;14.87;6.43;;;2.10;99.90;;;;;;5001143;28;20907;-78
2021/11/27 06:26:17;;;;;;;17.50;7.33;;;2.10;99.90;;;;;;5000988;28;20493;-79
2021/11/27 06:28:44;;;;;;;16.87;5.60;;;2.10;99.90;;;;;;5000858;28;20445;-79
2021/11/27 06:31:11;;;;;;;15.73;6.10;;;2.10;99.90;;;;;;5001169;28;20524;-79
2021/11/27 06:33:39;;;;;;;21.30;6.60;;;2.10;99.90;;;;;;5000362;28;20482;-79
2021/11/27 06:36:06;;;;;;;22.17;6.40;;;2.20;99.90;;;;;;5000275;28;20481;-79
2021/11/27 06:38:33;;;;;;;18.97;6.40;;;2.10;99.90;;;;;;5002449;28;20815;-80
2021/11/27 06:41:02;;;;;;;20.20;6.43;;;2.10;99.90;;;;;;5000466;28;20449;-79
2021/11/27 06:43:29;;;;;;;17.43;6.47;;;2.00;99.90;;;;;;5000147;28;20448;-80
2021/11/27 06:45:57;;;;;;;24.53;7.63;;;2.00;99.90;;;;;;4999877;28;20840;-79
2021/11/27 06:48:24;;;;;;;14.23;6.33;;;2.00;99.90;;;;;;4999388;28;20442;-79
2021/11/27 06:50:54;;;;;;;23.67;7.20;;;2.00;99.90;;;;;;4999651;28;20450;-80
2021/11/27 06:53:21;;;;;;;21.77;6.67;;;2.00;99.90;;;;;;4999467;28;20533;-80
2021/11/27 06:55:48;;;;;;;18.20;7.40;;;1.90;99.90;;;;;;4999721;28;20454;-79
2021/11/27 06:58:15;;;;;;;19.97;8.93;;;1.90;99.90;;;;;;4998673;28;20915;-80
2021/11/27 07:00:42;;;;;;;12.83;6.57;;;1.90;99.90;;;;;;4999170;28;20434;-79
2021/11/27 07:03:09;;;;;;;22.27;8.77;;;1.80;99.90;;;;;;4999131;28;20487;-80
2021/11/27 07:05:36;;;;;;;13.40;7.40;;;1.90;99.90;;;;;;5014724;28;20453;-80
2021/11/27 07:08:07;;;;;;;24.43;7.07;;;2.00;99.90;;;;;;5018686;28;20831;-79
2021/11/27 07:10:34;;;;;;;20.90;6.83;;;2.00;99.90;;;;;;5018250;28;20835;-79
2021/11/27 07:13:01;;;;;;;22.50;6.50;;;2.10;99.90;;;;;;5019055;28;20449;-80
2021/11/27 07:15:28;;;;;;;20.90;7.50;;;2.10;99.90;;;;;;5020363;28;20777;-80
2021/11/27 07:17:55;;;;;;;17.73;6.83;;;2.20;99.90;;;;;;5020892;28;20494;-80
2021/11/27 07:20:22;;;;;;;24.40;7.20;;;2.20;99.90;;;;;;5007956;28;20437;-80
2021/11/27 07:22:50;;;;;;;18.10;7.03;;;2.20;99.90;;;;;;5015819;28;20454;-78
2021/11/27 07:25:18;;;;;;;16.97;6.97;;;2.20;99.90;;;;;;5007498;28;20462;-80
2021/11/27 07:27:46;;;;;;;19.40;8.15;;;2.30;99.90;;;;;;5004363;28;20883;-81
2021/11/27 07:30:15;;;;;;;18.23;7.47;;;2.20;99.90;;;;;;5006750;28;20209;-81
2021/11/27 07:32:42;;;;;;;20.63;7.00;;;2.20;99.90;;;;;;5009015;28;20545;-82
2021/11/27 07:35:09;;;;;;;17.03;6.20;;;2.20;99.90;;;;;;5009422;28;20490;-81
2021/11/27 07:37:36;;;;;;;18.13;6.63;;;2.30;99.90;;;;;;5007446;28;20436;-81
2021/11/27 07:40:07;;;;;;;20.57;7.20;;;2.20;99.90;;;;;;5019383;28;20446;-82
2021/11/27 07:42:40;;;;;;;18.17;6.77;;;2.20;99.90;;;;;;5010973;28;20453;-80
2021/11/27 07:45:16;;;;;;;12.87;6.13;;;2.40;99.90;;;;;;5012436;28;20474;-80
2021/11/27 07:47:43;;;;;;;17.13;6.73;;;2.40;99.90;;;;;;5014298;28;20430;-78
2021/11/27 07:50:11;;;;;;;16.70;7.10;;;2.50;99.90;;;;;;5001480;28;20438;-80
2021/11/27 07:53:12;;;;;;;15.23;7.43;;;2.60;99.90;;;;;;5006789;28;20464;-86
2021/11/27 08:02:52;;;;;;;16.70;6.80;;;2.60;99.90;;;;;;5014651;28;20496;-85
2021/11/27 08:06:08;;;;;;;15.17;6.30;;;2.70;99.90;;;;;;5023563;28;20425;-85
2021/11/27 08:09:00;;;;;;;19.93;7.07;;;2.90;99.90;;;;;;5033143;28;20449;-86
2021/11/27 08:11:33;;;;;;;23.27;7.37;;;2.80;99.90;;;;;;5031886;28;20527;-85
2021/11/27 08:14:20;;;;;;;17.07;6.53;;;2.80;99.90;;;;;;5031849;28;20484;-87
2021/11/27 08:17:02;;;;;;;16.07;7.10;;;3.00;99.90;;;;;;5014030;28;20526;-85
2021/11/27 08:19:36;;;;;;;17.60;6.43;;;3.00;99.90;;;;;;5011388;28;20473;-84
2021/11/27 08:22:06;;;;;;;15.10;6.97;;;3.10;99.90;;;;;;5009420;28;20462;-84
2021/11/27 08:24:43;;;;;;;16.83;7.17;;;3.20;99.90;;;;;;5020492;28;20453;-82
2021/11/27 08:27:20;;;;;;;14.10;6.33;;;3.20;99.90;;;;;;5013652;28;20482;-83
2021/11/27 08:29:47;;;;;;;14.23;6.53;;;3.20;99.90;;;;;;5020580;28;20421;-76
2021/11/27 08:32:14;;;;;;;16.20;6.50;;;3.20;99.90;;;;;;5008408;28;20946;-78
2021/11/27 08:34:41;;;;;;;19.17;6.87;;;3.30;99.90;;;;;;5012014;28;20472;-77
2021/11/27 08:37:10;;;;;;;18.53;7.07;;;3.30;99.90;;;;;;5010284;28;20453;-79
2021/11/27 08:39:37;;;;;;;16.60;7.63;;;3.50;99.90;;;;;;5016404;28;20459;-77
2021/11/27 08:42:07;;;;;;;12.40;7.80;;;3.50;99.90;;;;;;5018475;28;20442;-81
2021/11/27 08:44:34;;;;;;;18.47;7.10;;;3.50;99.90;;;;;;5018322;28;20489;-80
2021/11/27 08:47:01;;;;;;;16.50;7.73;;;3.60;99.90;;;;;;5020682;28;20432;-81
2021/11/27 08:49:28;;;;;;;20.77;7.37;;;3.60;99.90;;;;;;5019337;28;20851;-81
2021/11/27 08:51:55;;;;;;;13.77;6.90;;;3.40;99.90;;;;;;5020197;28;20451;-80
2021/11/27 08:54:22;;;;;;;14.87;8.40;;;3.50;99.90;;;;;;5020019;28;20476;-81
2021/11/27 08:56:49;;;;;;;13.30;6.97;;;3.60;99.90;;;;;;5021239;28;20438;-81
2021/11/27 08:59:23;;;;;;;16.03;7.50;;;3.40;99.90;;;;;;5019984;28;20457;-79
2021/11/27 09:01:50;;;;;;;18.17;7.37;;;3.60;99.90;;;;;;5017240;28;20227;-79
2021/11/27 09:04:19;;;;;;;15.17;6.57;;;3.70;99.90;;;;;;5014717;28;20445;-84
2021/11/27 09:06:47;;;;;;;15.10;6.83;;;3.90;99.90;;;;;;5012063;28;20465;-80
2021/11/27 09:09:16;;;;;;;17.37;6.83;;;3.90;99.90;;;;;;5017201;28;20422;-83
2021/11/27 09:11:43;;;;;;;16.13;7.97;;;4.00;99.90;;;;;;5009977;28;20201;-81
2021/11/27 09:14:11;;;;;;;12.27;6.37;;;4.00;99.90;;;;;;5009729;28;20231;-80
2021/11/27 09:16:40;;;;;;;16.70;6.80;;;4.00;99.90;;;;;;5017491;28;20557;-81
2021/11/27 09:19:08;;;;;;;14.00;6.03;;;4.10;99.90;;;;;;5011246;28;20959;-82
2021/11/27 09:21:36;;;;;;;11.07;6.77;;;4.20;99.90;;;;;;5010215;28;20544;-79
2021/11/27 09:24:04;;;;;;;17.33;6.27;;;4.30;99.90;;;;;;5017531;28;20208;-79
2021/11/27 09:26:31;;;;;;;19.47;7.07;;;4.10;99.90;;;;;;5013212;28;20205;-80
2021/11/27 09:29:01;;;;;;;13.27;6.40;;;4.20;99.90;;;;;;4991537;28;20232;-80
2021/11/27 09:31:29;;;;;;;17.67;6.17;;;4.00;99.90;;;;;;5002106;28;20293;-79
2021/11/27 09:33:57;;;;;;;13.57;6.43;;;3.70;99.90;;;;;;5003464;28;20228;-80
2021/11/27 09:36:24;;;;;;;14.57;6.30;;;3.60;99.90;;;;;;5003959;28;20204;-80
2021/11/27 09:38:53;;;;;;;10.53;6.07;;;3.80;99.90;;;;;;5003718;28;20244;-79
2021/11/27 09:41:23;;;;;;;16.33;7.40;;;3.90;99.90;;;;;;5004332;28;20220;-81
2021/11/27 09:43:52;;;;;;;13.33;6.80;;;4.00;99.90;;;;;;5005017;28;20219;-80
2021/11/27 09:46:20;;;;;;;15.40;6.50;;;3.90;99.90;;;;;;4999753;28;20727;-79
2021/11/27 09:48:48;;;;;;;13.20;7.80;;;3.90;99.90;;;;;;5003701;28;20200;-79
2021/11/27 09:51:17;;;;;;;12.07;7.00;;;3.80;99.90;;;;;;5001022;28;20208;-80
2021/11/27 09:53:45;;;;;;;10.63;6.10;;;3.70;99.90;;;;;;4998495;28;20224;-81
2021/11/27 09:56:15;;;;;;;11.93;6.10;;;3.90;99.90;;;;;;5002577;28;20263;-80
2021/11/27 09:58:43;;;;;;;14.40;6.27;;;4.10;99.90;;;;;;4998394;28;20197;-81
2021/11/27 10:01:12;;;;;;;11.47;6.27;;;4.20;99.90;;;;;;5005153;28;20209;-83
2021/11/27 10:03:41;;;;;;;13.63;6.40;;;4.40;99.90;;;;;;5012885;28;20207;-79
2021/11/27 10:06:08;;;;;;;15.27;6.93;;;4.50;99.90;;;;;;4997284;28;20211;-79
2021/11/27 10:08:47;;;;;;;14.57;6.50;;;4.40;99.90;;;;;;5026008;28;20567;-83
2021/11/27 10:11:14;;;;;;;13.70;7.00;;;4.50;99.90;;;;;;5028962;28;20214;-79
2021/11/27 10:13:48;;;;;;;12.73;6.03;;;4.50;99.90;;;;;;5023913;28;20207;-84
2021/11/27 10:16:20;;;;;;;16.23;6.03;;;4.50;99.90;;;;;;5025316;28;20204;-85
2021/11/27 10:19:06;;;;;;;12.50;6.30;;;4.50;99.90;;;;;;5028870;28;20203;-80
2021/11/27 10:21:38;;;;;;;21.43;6.90;;;4.60;99.90;;;;;;5019288;28;20199;-83
2021/11/27 10:24:35;;;;;;;9.70;6.67;;;4.60;99.90;;;;;;5011732;28;20208;-79
2021/11/27 10:27:04;;;;;;;11.70;6.90;;;4.40;99.90;;;;;;5002709;28;20630;-80
2021/11/27 10:29:37;;;;;;;17.60;7.10;;;4.30;99.90;;;;;;5012756;28;20208;-83
2021/11/27 10:32:19;;;;;;;11.77;7.17;;;4.40;99.90;;;;;;5012264;28;20231;-83
2021/11/27 10:34:51;;;;;;;14.03;7.83;;;4.60;99.90;;;;;;5008795;28;20646;-79
2021/11/27 10:37:27;;;;;;;19.43;6.97;;;4.60;99.90;;;;;;5007967;28;20196;-82
2021/11/27 10:40:00;;;;;;;11.43;7.03;;;4.60;99.90;;;;;;5006603;28;20195;-79
2021/11/27 10:42:28;;;;;;;12.13;7.10;;;4.60;99.90;;;;;;5010374;28;20204;-79
2021/11/27 10:44:56;;;;;;;14.33;7.10;;;4.40;99.90;;;;;;5003622;28;20692;-80
2021/11/27 10:47:24;;;;;;;13.53;6.40;;;4.30;99.90;;;;;;5009220;28;20211;-79
2021/11/27 10:49:53;;;;;;;14.17;6.50;;;4.40;99.90;;;;;;5006289;28;20292;-79
2021/11/27 10:52:23;;;;;;;14.40;7.13;;;4.50;99.90;;;;;;4999789;28;20199;-79
2021/11/27 10:54:52;;;;;;;14.20;6.77;;;4.40;99.90;;;;;;5006313;28;20714;-79
2021/11/27 10:57:36;;;;;;;12.43;7.93;;;4.40;99.90;;;;;;5007505;28;20444;-80
2021/11/27 11:00:08;;;;;;;13.67;7.87;;;4.60;99.90;;;;;;5012177;28;20291;-84
2021/11/27 11:02:36;;;;;;;17.17;7.70;;;4.50;99.90;;;;;;5012680;28;20238;-79
2021/11/27 11:05:07;;;;;;;15.43;7.37;;;4.50;99.90;;;;;;5008666;28;20185;-78
2021/11/27 11:07:34;;;;;;;14.07;7.33;;;4.60;99.90;;;;;;5008922;28;20200;-79
2021/11/27 11:10:20;;;;;;;14.17;7.63;;;4.60;99.90;;;;;;5007429;28;20212;-78
2021/11/27 11:12:51;;;;;;;14.40;7.97;;;4.50;99.90;;;;;;5014248;28;20210;-79
2021/11/27 11:15:20;;;;;;;11.13;6.87;;;4.70;99.90;;;;;;5014192;28;20230;-79
2021/11/27 11:17:49;;;;;;;15.23;7.80;;;4.70;99.90;;;;;;5014026;28;20239;-79
2021/11/27 11:20:18;;;;;;;20.43;8.27;;;4.70;99.90;;;;;;5009770;28;20203;-78
2021/11/27 11:23:04;;;;;;;9.97;6.03;;;5.00;99.90;;;;;;5017155;28;20199;-83
2021/11/27 11:25:33;;;;;;;8.63;6.00;;;5.10;99.90;;;;;;5018548;28;20229;-80
2021/11/27 11:28:11;;;;;;;13.03;6.37;;;5.40;99.90;;;;;;5017803;28;20227;-79
2021/11/27 11:30:40;;;;;;;10.63;6.20;;;5.50;99.90;;;;;;5017278;28;20192;-80
2021/11/27 11:33:07;;;;;;;10.77;5.60;;;5.50;99.90;;;;;;5017140;28;20206;-81
2021/11/27 11:35:35;;;;;;;10.47;6.50;;;5.60;99.90;;;;;;5017171;28;20220;-79
2021/11/27 11:38:03;;;;;;;11.27;6.40;;;5.70;99.90;;;;;;5016824;28;20247;-79
2021/11/27 11:40:31;;;;;;;9.20;5.40;;;5.50;99.90;;;;;;5016808;28;20214;-78
2021/11/27 11:42:59;;;;;;;11.60;5.70;;;5.50;99.90;;;;;;5017286;28;20199;-82
2021/11/27 11:45:27;;;;;;;11.47;5.50;;;5.80;99.90;;;;;;5015685;28;20238;-79
2021/11/27 11:47:57;;;;;;;15.50;5.03;;;6.20;99.90;;;;;;5016440;28;20211;-79
2021/11/27 11:50:27;;;;;;;12.13;5.20;;;6.10;99.90;;;;;;5017324;28;20664;-81
2021/11/27 11:53:03;;;;;;;10.20;4.53;;;5.80;99.90;;;;;;5010412;28;20220;-79
2021/11/27 11:55:30;;;;;;;8.47;5.60;;;6.20;99.90;;;;;;4981244;28;20240;-79
2021/11/27 11:58:01;;;;;;;5.80;4.47;;;6.40;99.90;;;;;;4976009;28;20212;-79
2021/11/27 12:00:31;;;;;;;7.00;5.50;;;6.40;99.90;;;;;;4961045;28;20201;-79
2021/11/27 12:03:05;;;;;;;8.13;4.17;;;6.40;99.90;;;;;;4977673;28;20220;-79
2021/11/27 12:05:34;;;;;;;8.80;4.70;;;6.60;99.90;;;;;;4977903;28;20216;-80
2021/11/27 12:08:05;;;;;;;7.00;5.10;;;6.70;99.90;;;;;;4978862;28;20209;-80
2021/11/27 12:10:43;;;;;;;9.57;5.10;;;6.70;99.90;;;;;;4978061;28;20197;-79
2021/11/27 12:13:33;;;;;;;5.63;4.30;;;6.70;99.90;;;;;;4978046;28;20197;-79
2021/11/27 12:16:11;;;;;;;7.83;3.90;;;6.40;99.90;;;;;;4978354;28;20228;-79
2021/11/27 12:19:07;;;;;;;9.90;4.33;;;6.40;99.90;;;;;;4977518;28;20197;-82
2021/11/27 12:21:34;;;;;;;7.30;4.50;;;6.20;99.90;;;;;;4977403;28;20301;-81
2021/11/27 12:24:01;;;;;;;10.70;5.57;;;6.30;99.90;;;;;;4977446;28;20555;-78
2021/11/27 12:26:28;;;;;;;11.80;5.50;;;6.00;99.90;;;;;;4978096;28;20232;-81
2021/11/27 12:29:12;;;;;;;7.27;4.87;;;5.90;99.90;;;;;;4993917;28;20199;-80
2021/11/27 12:31:51;;;;;;;7.43;4.07;;;5.80;99.90;;;;;;5002004;28;20505;-80
2021/11/27 12:34:45;;;;;;;6.43;4.20;;;5.70;99.90;;;;;;4992562;28;20200;-80
2021/11/27 12:37:28;;;;;;;8.33;4.17;;;5.60;99.90;;;;;;4999986;28;20210;-81
2021/11/27 12:39:56;;;;;;;6.37;3.70;;;5.60;99.90;;;;;;5000523;28;20212;-80
2021/11/27 12:42:33;;;;;;;6.90;4.70;;;5.60;99.90;;;;;;4998127;28;20212;-81
2021/11/27 12:45:01;;;;;;;6.60;3.73;;;5.60;99.90;;;;;;4982032;28;20220;-80
2021/11/27 12:47:33;;;;;;;4.70;3.60;;;5.60;99.90;;;;;;5014136;28;20203;-83
2021/11/27 12:50:12;;;;;;;7.63;3.80;;;5.80;99.90;;;;;;5017186;28;20203;-80
2021/11/27 12:52:45;;;;;;;4.78;3.20;;;5.80;99.90;;;;;;5017935;28;20436;-80
2021/11/27 12:55:37;;;;;;;4.13;3.00;;;5.80;99.90;;;;;;5000034;28;20699;-82
2021/11/27 12:58:39;;;;;;;5.20;3.03;;;5.70;99.90;;;;;;5009242;28;20283;-79
2021/11/27 13:01:06;;;;;;;3.60;2.73;;;5.60;99.90;;;;;;4992514;28;20208;-79
2021/11/27 13:03:35;;;;;;;2.73;2.53;;;5.60;99.90;;;;;;4982540;28;20212;-78
2021/11/27 13:06:02;;;;;;;3.30;2.20;;;5.40;99.90;;;;;;4999814;28;20204;-79
2021/11/27 13:08:34;;;;;;;3.30;2.33;;;5.40;99.90;;;;;;5005592;28;20200;-78
2021/11/27 13:11:24;;;;;;;5.13;2.30;;;5.40;99.90;;;;;;5008143;28;20188;-79
2021/11/27 13:13:57;;;;;;;4.63;2.80;;;5.40;99.90;;;;;;5003987;28;20292;-82